Time;durP1;ratioP1;P1;durP2;ratioP2;P2;SDS_P1;SDS_P2;PMS_P1;PMS_P2;Temp;Humidity;BMP_temperature;BMP_pressure;BME280_temperature;BME280_humidity;BME280_pressure;Samples;Min_cycle;Max_cycle;Signal;HPM_P1;HPM_P2
2021/12/02 00:00:42;;;;;;;15.18;7.60;;;1.20;99.90;;;;;;5033870;28;20079;-70
2021/12/02 00:03:09;;;;;;;13.82;7.53;;;1.20;99.90;;;;;;5035015;28;20025;-70
2021/12/02 00:05:35;;;;;;;14.38;7.72;;;1.20;99.90;;;;;;5035414;28;20381;-70
2021/12/02 00:08:00;;;;;;;14.35;7.45;;;1.20;99.90;;;;;;5035300;28;20026;-70
2021/12/02 00:10:30;;;;;;;14.00;7.75;;;1.30;99.90;;;;;;5035559;28;20107;-70
2021/12/02 00:12:57;;;;;;;14.45;6.85;;;1.30;99.90;;;;;;5035796;28;20030;-70
2021/12/02 00:15:26;;;;;;;13.05;6.85;;;1.30;99.90;;;;;;5035162;28;20021;-69
2021/12/02 00:18:08;;;;;;;13.20;7.15;;;1.30;99.90;;;;;;5035141;28;20029;-70
2021/12/02 00:23:29;;;;;;;14.73;7.40;;;1.30;99.90;;;;;;5040061;28;20033;-70
2021/12/02 00:25:59;;;;;;;12.70;6.63;;;1.30;99.90;;;;;;5039254;28;20355;-70
2021/12/02 00:28:26;;;;;;;12.90;7.03;;;1.30;99.90;;;;;;5038928;28;20022;-70
2021/12/02 00:31:16;;;;;;;12.07;6.68;;;1.30;99.90;;;;;;5038166;28;20037;-70
2021/12/02 00:33:51;;;;;;;17.55;8.93;;;1.30;99.90;;;;;;5037866;28;20025;-70
2021/12/02 00:36:19;;;;;;;14.13;8.40;;;1.20;99.90;;;;;;5037519;28;20101;-70
2021/12/02 00:38:46;;;;;;;15.05;8.32;;;1.20;99.90;;;;;;5037788;28;20028;-69
2021/12/02 00:41:15;;;;;;;13.68;7.55;;;1.20;99.90;;;;;;5037360;28;20052;-70
2021/12/02 00:43:41;;;;;;;10.25;5.72;;;1.20;99.90;;;;;;5037595;28;20092;-70
2021/12/02 00:46:10;;;;;;;12.60;6.43;;;1.20;99.90;;;;;;5037408;28;20072;-70
2021/12/02 00:48:36;;;;;;;13.88;6.78;;;1.20;99.90;;;;;;5037452;28;20025;-70
2021/12/02 00:51:03;;;;;;;8.73;5.50;;;1.20;99.90;;;;;;5035760;28;20099;-70
2021/12/02 00:53:31;;;;;;;10.13;5.65;;;1.20;99.90;;;;;;5037011;28;20029;-70
2021/12/02 00:56:02;;;;;;;12.15;6.53;;;1.20;99.90;;;;;;5036501;28;20432;-70
2021/12/02 00:58:30;;;;;;;11.93;6.90;;;1.20;99.90;;;;;;5036515;28;20075;-70
2021/12/02 01:00:57;;;;;;;16.75;8.30;;;1.20;99.90;;;;;;5036325;28;20033;-70
2021/12/02 01:03:26;;;;;;;12.90;7.43;;;1.30;99.90;;;;;;5036477;28;20060;-70
2021/12/02 01:05:52;;;;;;;14.23;7.68;;;1.30;99.90;;;;;;5036328;28;20036;-70
2021/12/02 01:08:21;;;;;;;11.90;6.95;;;1.30;99.90;;;;;;5036181;28;20021;-70
2021/12/02 01:10:47;;;;;;;14.88;7.50;;;1.20;99.90;;;;;;5036230;28;20018;-70
2021/12/02 01:13:13;;;;;;;15.73;9.05;;;1.20;99.90;;;;;;5036211;28;20051;-70
2021/12/02 01:15:39;;;;;;;15.35;8.50;;;1.30;99.90;;;;;;5036097;28;20464;-70
2021/12/02 01:18:04;;;;;;;16.92;9.50;;;1.20;99.90;;;;;;5036124;28;20044;-70
2021/12/02 01:20:31;;;;;;;15.75;8.70;;;1.20;99.90;;;;;;5051388;28;20026;-70
2021/12/02 01:23:02;;;;;;;17.30;8.93;;;1.20;99.90;;;;;;5036250;28;20083;-71
2021/12/02 01:25:32;;;;;;;14.53;9.00;;;1.20;99.90;;;;;;5036356;28;20024;-70
2021/12/02 01:27:59;;;;;;;18.77;10.00;;;1.20;99.90;;;;;;5051190;28;20385;-70
2021/12/02 01:30:30;;;;;;;15.40;8.85;;;1.20;99.90;;;;;;5035924;28;20047;-70
2021/12/02 01:33:00;;;;;;;17.60;8.05;;;1.20;99.90;;;;;;5035832;28;20109;-70
2021/12/02 01:35:28;;;;;;;10.10;5.77;;;1.20;99.90;;;;;;5036120;28;20092;-70
2021/12/02 01:37:54;;;;;;;14.95;7.95;;;1.30;99.90;;;;;;5035734;28;20021;-70
2021/12/02 01:40:20;;;;;;;14.10;7.72;;;1.30;99.90;;;;;;5035693;28;20119;-70
2021/12/02 01:42:47;;;;;;;13.07;6.97;;;1.30;99.90;;;;;;5035551;28;20057;-70
2021/12/02 01:45:16;;;;;;;13.07;7.35;;;1.30;99.90;;;;;;5035704;28;20049;-70
2021/12/02 01:47:48;;;;;;;11.20;6.70;;;1.30;99.90;;;;;;5036011;28;20036;-70
2021/12/02 01:50:20;;;;;;;11.65;6.70;;;1.20;99.90;;;;;;5035773;28;20021;-71
2021/12/02 01:52:58;;;;;;;11.90;7.20;;;1.20;99.90;;;;;;5051278;28;20088;-70
2021/12/02 01:55:25;;;;;;;13.95;7.30;;;1.20;99.90;;;;;;5035768;28;20037;-71
2021/12/02 01:58:02;;;;;;;14.30;7.47;;;1.20;99.90;;;;;;5035457;28;20026;-71
2021/12/02 02:00:42;;;;;;;15.13;7.05;;;1.20;99.90;;;;;;5035659;28;20103;-70
2021/12/02 02:03:10;;;;;;;14.02;7.68;;;1.20;99.90;;;;;;5035654;28;20535;-71
2021/12/02 02:05:36;;;;;;;13.23;8.20;;;1.20;99.90;;;;;;5035517;28;20029;-71
2021/12/02 02:08:16;;;;;;;12.93;6.95;;;1.20;99.90;;;;;;5035178;28;20049;-71
2021/12/02 02:10:43;;;;;;;11.10;6.95;;;1.20;99.90;;;;;;5035367;28;20026;-71
2021/12/02 02:13:10;;;;;;;9.55;5.80;;;1.20;99.90;;;;;;5036042;28;20083;-71
2021/12/02 02:15:44;;;;;;;9.50;5.45;;;1.30;99.90;;;;;;5036170;28;20033;-71
2021/12/02 02:23:20;;;;;;;9.75;5.13;;;1.30;99.90;;;;;;5035250;28;20032;-71
2021/12/02 02:25:47;;;;;;;10.43;6.22;;;1.30;99.90;;;;;;5035484;28;20025;-71
2021/12/02 02:28:14;;;;;;;9.45;5.40;;;1.30;99.90;;;;;;5035110;28;20028;-70
2021/12/02 02:30:39;;;;;;;10.38;5.30;;;1.30;99.90;;;;;;5034949;28;20028;-70
2021/12/02 02:33:05;;;;;;;9.68;5.47;;;1.30;99.90;;;;;;5034780;28;20034;-70
2021/12/02 02:35:31;;;;;;;10.10;5.32;;;1.30;99.90;;;;;;5034976;28;20080;-70
2021/12/02 02:37:59;;;;;;;9.07;5.35;;;1.30;99.90;;;;;;5050139;28;20381;-70
2021/12/02 02:40:25;;;;;;;9.68;5.55;;;1.40;99.90;;;;;;5033606;28;20117;-70
2021/12/02 02:42:59;;;;;;;7.28;4.95;;;1.40;99.90;;;;;;5034248;28;20084;-71
2021/12/02 02:45:25;;;;;;;11.63;6.28;;;1.40;99.90;;;;;;5035144;28;20142;-71
2021/12/02 02:47:51;;;;;;;9.13;5.78;;;1.30;99.90;;;;;;5034635;28;20123;-71
2021/12/02 02:50:17;;;;;;;7.88;4.88;;;1.30;99.90;;;;;;5034648;28;20022;-71
2021/12/02 02:52:44;;;;;;;7.60;4.53;;;1.30;99.90;;;;;;5034497;28;20028;-71
2021/12/02 02:55:23;;;;;;;8.48;4.28;;;1.30;99.90;;;;;;5034522;28;20029;-71
2021/12/02 03:00:55;;;;;;;10.88;5.88;;;1.20;99.90;;;;;;5044375;28;20494;-70
2021/12/02 03:08:24;;;;;;;10.98;6.13;;;1.20;99.90;;;;;;5034366;28;20525;-70
2021/12/02 03:10:55;;;;;;;11.85;6.50;;;1.20;99.90;;;;;;5033959;28;20039;-71
2021/12/02 03:13:35;;;;;;;14.38;7.57;;;1.20;99.90;;;;;;5034024;28;20032;-70
2021/12/02 03:18:44;;;;;;;15.57;8.32;;;1.30;99.90;;;;;;5033967;28;20024;-70
2021/12/02 03:21:21;;;;;;;57.63;26.85;;;1.30;99.90;;;;;;5033735;28;20021;-70
2021/12/02 03:23:55;;;;;;;57.25;29.08;;;1.30;99.90;;;;;;5033762;28;20096;-70
2021/12/02 03:26:21;;;;;;;52.83;26.17;;;1.20;99.90;;;;;;5033921;28;20018;-70
2021/12/02 03:28:52;;;;;;;57.00;25.08;;;1.20;99.90;;;;;;5032441;28;20028;-70
2021/12/02 03:31:18;;;;;;;34.47;18.42;;;1.20;99.90;;;;;;5034595;28;20018;-70
2021/12/02 03:33:44;;;;;;;25.65;13.35;;;1.20;99.90;;;;;;5033665;28;20104;-70
2021/12/02 03:36:12;;;;;;;14.63;7.85;;;1.20;99.90;;;;;;5034200;28;20108;-71
2021/12/02 03:38:38;;;;;;;14.20;7.55;;;1.20;99.90;;;;;;5034571;28;20029;-70
2021/12/02 03:41:04;;;;;;;12.77;6.80;;;1.20;99.90;;;;;;5034023;28;20056;-71
2021/12/02 03:43:49;;;;;;;13.77;7.00;;;1.20;99.90;;;;;;5033674;28;20536;-71
2021/12/02 03:46:19;;;;;;;10.65;6.55;;;1.20;99.90;;;;;;5032198;28;20025;-71
2021/12/02 03:48:45;;;;;;;9.00;5.75;;;1.20;99.90;;;;;;5033539;28;20502;-71
2021/12/02 03:51:11;;;;;;;9.52;5.78;;;1.20;99.90;;;;;;5033627;28;20029;-71
2021/12/02 03:53:37;;;;;;;8.77;5.18;;;1.20;99.90;;;;;;5033720;28;20018;-71
2021/12/02 03:56:06;;;;;;;10.13;5.80;;;1.20;99.90;;;;;;5032878;28;20048;-71
2021/12/02 03:58:33;;;;;;;11.63;6.18;;;1.20;99.90;;;;;;5033952;28;20018;-71
2021/12/02 04:00:59;;;;;;;10.90;6.30;;;1.20;99.90;;;;;;5034317;28;20071;-71
2021/12/02 04:03:25;;;;;;;8.65;5.45;;;1.20;99.90;;;;;;5034697;28;20097;-71
2021/12/02 04:05:50;;;;;;;10.75;6.32;;;1.30;99.90;;;;;;5049147;28;20060;-71
2021/12/02 04:08:17;;;;;;;9.80;5.53;;;1.30;99.90;;;;;;5033286;28;20025;-71
2021/12/02 04:10:44;;;;;;;11.32;6.65;;;1.30;99.90;;;;;;5034124;28;20156;-71
2021/12/02 04:15:40;;;;;;;13.55;7.20;;;1.30;99.90;;;;;;5035436;28;20026;-71
2021/12/02 04:18:09;;;;;;;12.68;6.88;;;1.40;99.90;;;;;;5034205;28;20035;-71
2021/12/02 04:20:36;;;;;;;15.00;7.38;;;1.40;99.90;;;;;;5034614;28;20029;-71
2021/12/02 04:23:03;;;;;;;12.95;7.47;;;1.40;99.90;;;;;;5034478;28;20544;-71
2021/12/02 04:25:29;;;;;;;11.70;7.07;;;1.40;99.90;;;;;;5035010;28;20028;-71
2021/12/02 04:27:55;;;;;;;13.65;7.25;;;1.30;99.90;;;;;;5033497;28;20026;-71
2021/12/02 04:30:25;;;;;;;12.02;6.90;;;1.30;99.90;;;;;;5033647;28;20017;-71
2021/12/02 04:32:51;;;;;;;12.52;6.90;;;1.20;99.90;;;;;;5033520;28;20092;-71
2021/12/02 04:35:17;;;;;;;13.60;7.70;;;1.30;99.90;;;;;;5033077;28;20493;-71
2021/12/02 04:37:44;;;;;;;17.88;9.30;;;1.30;99.90;;;;;;5033110;28;20099;-71
2021/12/02 04:40:16;;;;;;;13.65;7.80;;;1.30;99.90;;;;;;5033493;28;20026;-71
2021/12/02 04:42:43;;;;;;;14.75;9.10;;;1.30;99.90;;;;;;5033463;28;20026;-71
2021/12/02 04:45:09;;;;;;;13.77;8.77;;;1.40;99.90;;;;;;5036097;28;20477;-71
2021/12/02 04:47:35;;;;;;;12.75;7.70;;;1.40;99.90;;;;;;5035595;28;20029;-71
2021/12/02 04:50:01;;;;;;;14.85;8.63;;;1.40;99.90;;;;;;5035562;28;20021;-71
2021/12/02 04:52:26;;;;;;;11.50;6.65;;;1.30;99.90;;;;;;5034757;28;20033;-71
2021/12/02 04:54:53;;;;;;;11.98;6.97;;;1.30;99.90;;;;;;5035800;28;20050;-71
2021/12/02 04:57:19;;;;;;;11.63;6.55;;;1.40;99.90;;;;;;5035818;28;20040;-71
2021/12/02 04:59:45;;;;;;;12.65;7.25;;;1.40;99.90;;;;;;5036190;28;20049;-71
2021/12/02 05:02:11;;;;;;;10.32;6.10;;;1.30;99.90;;;;;;5036268;28;20025;-71
2021/12/02 05:04:37;;;;;;;12.18;6.30;;;1.30;99.90;;;;;;5035631;28;20026;-71
2021/12/02 05:07:03;;;;;;;10.55;5.90;;;1.30;99.90;;;;;;5036869;28;20347;-71
2021/12/02 05:09:29;;;;;;;11.43;6.53;;;1.20;99.90;;;;;;5035675;28;20573;-71
2021/12/02 05:11:55;;;;;;;13.23;7.55;;;1.20;99.90;;;;;;5036910;28;20051;-71
2021/12/02 05:14:20;;;;;;;15.55;8.85;;;1.20;99.90;;;;;;5051621;28;20034;-71
2021/12/02 05:16:46;;;;;;;14.98;8.82;;;1.20;99.90;;;;;;5036349;28;20048;-71
2021/12/02 05:19:12;;;;;;;19.45;9.00;;;1.20;99.90;;;;;;5036654;28;20033;-71
2021/12/02 05:21:38;;;;;;;36.45;16.25;;;1.20;99.90;;;;;;5036856;28;20112;-71
2021/12/02 05:24:04;;;;;;;29.92;14.52;;;1.30;99.90;;;;;;5036694;28;20059;-71
2021/12/02 05:26:30;;;;;;;29.10;13.85;;;1.30;99.90;;;;;;5036530;28;20076;-71
2021/12/02 05:28:55;;;;;;;25.35;12.75;;;1.30;99.90;;;;;;5036282;28;20392;-71
2021/12/02 05:31:22;;;;;;;35.28;16.58;;;1.30;99.90;;;;;;5036078;28;20025;-71
2021/12/02 05:33:48;;;;;;;40.95;22.02;;;1.20;99.90;;;;;;5035961;28;20025;-71
2021/12/02 05:36:14;;;;;;;32.72;17.38;;;1.20;99.90;;;;;;5036877;28;20030;-71
2021/12/02 05:38:40;;;;;;;18.52;10.55;;;1.20;99.90;;;;;;5036222;28;20524;-71
2021/12/02 05:41:06;;;;;;;21.02;11.23;;;1.30;99.90;;;;;;5036320;28;20037;-70
2021/12/02 05:43:32;;;;;;;19.63;10.27;;;1.30;99.90;;;;;;5035590;28;20025;-70
2021/12/02 05:45:57;;;;;;;22.23;11.45;;;1.30;99.90;;;;;;5035523;28;20052;-71
2021/12/02 05:48:23;;;;;;;20.67;10.90;;;1.30;99.90;;;;;;5035737;28;20144;-70
2021/12/02 05:50:49;;;;;;;18.15;9.82;;;1.20;99.90;;;;;;5035828;28;20021;-71
2021/12/02 05:53:16;;;;;;;17.58;9.95;;;1.20;99.90;;;;;;5036234;28;20171;-71
2021/12/02 05:55:42;;;;;;;18.83;10.63;;;1.20;99.90;;;;;;5035533;28;20032;-71
2021/12/02 05:58:10;;;;;;;18.83;10.52;;;1.20;99.90;;;;;;5035603;28;20105;-70
2021/12/02 06:00:36;;;;;;;18.52;10.45;;;1.20;99.90;;;;;;5035467;28;20104;-71
2021/12/02 06:03:02;;;;;;;17.48;9.80;;;1.20;99.90;;;;;;5035592;28;20025;-71
2021/12/02 06:05:28;;;;;;;15.70;10.10;;;1.20;99.90;;;;;;5035331;28;20028;-71
2021/12/02 06:07:58;;;;;;;19.40;11.02;;;1.20;99.90;;;;;;5035223;28;20096;-70
2021/12/02 06:10:25;;;;;;;16.52;10.30;;;1.20;99.90;;;;;;5033948;28;20488;-70
2021/12/02 06:12:50;;;;;;;18.42;10.50;;;1.20;99.90;;;;;;5035394;28;20025;-71
2021/12/02 06:15:16;;;;;;;20.33;12.10;;;1.20;99.90;;;;;;5035049;28;20029;-71
2021/12/02 06:17:44;;;;;;;17.33;11.35;;;1.20;99.90;;;;;;5034070;28;20401;-70
2021/12/02 06:20:12;;;;;;;23.95;13.05;;;1.20;99.90;;;;;;5035027;28;20048;-70
2021/12/02 06:22:38;;;;;;;22.55;12.52;;;1.20;99.90;;;;;;5034908;28;20432;-71
2021/12/02 06:27:52;;;;;;;19.73;10.90;;;1.20;99.90;;;;;;5035123;28;20484;-70
2021/12/02 06:30:19;;;;;;;18.38;11.65;;;1.20;99.90;;;;;;5034830;28;20049;-71
2021/12/02 06:32:45;;;;;;;20.25;10.45;;;1.20;99.90;;;;;;5034887;28;20500;-70
2021/12/02 06:35:11;;;;;;;17.33;10.07;;;1.20;99.90;;;;;;5035063;28;20029;-71
2021/12/02 06:37:38;;;;;;;18.75;11.02;;;1.20;99.90;;;;;;5034667;28;20025;-70
2021/12/02 06:40:06;;;;;;;22.30;11.90;;;1.20;99.90;;;;;;5034943;28;20026;-71
2021/12/02 06:42:31;;;;;;;17.30;11.10;;;1.20;99.90;;;;;;5035090;28;20018;-71
2021/12/02 06:44:57;;;;;;;17.73;10.57;;;1.20;99.90;;;;;;5035182;28;20580;-71
2021/12/02 06:47:29;;;;;;;20.77;11.25;;;1.20;99.90;;;;;;5034518;28;20371;-70
2021/12/02 06:49:56;;;;;;;16.48;9.73;;;1.20;99.90;;;;;;5034903;28;20024;-70
2021/12/02 06:52:23;;;;;;;18.13;9.43;;;1.20;99.90;;;;;;5035325;28;20025;-71
2021/12/02 06:54:50;;;;;;;21.77;9.48;;;1.10;99.90;;;;;;5035296;28;20055;-70
2021/12/02 06:57:17;;;;;;;17.38;9.23;;;1.10;99.90;;;;;;5034473;28;20405;-70
2021/12/02 06:59:43;;;;;;;19.17;9.38;;;1.10;99.90;;;;;;5034560;28;20025;-70
2021/12/02 07:02:09;;;;;;;15.02;8.60;;;1.10;99.90;;;;;;5034068;28;20470;-71
2021/12/02 07:04:35;;;;;;;22.98;10.85;;;1.10;99.90;;;;;;5034321;28;20048;-71
2021/12/02 07:07:00;;;;;;;16.65;9.25;;;1.20;99.90;;;;;;5034383;28;20025;-71
2021/12/02 07:09:26;;;;;;;22.75;10.77;;;1.20;99.90;;;;;;5034533;28;20033;-71
2021/12/02 07:11:52;;;;;;;22.40;12.23;;;1.20;99.90;;;;;;5034484;28;20033;-71
2021/12/02 07:14:19;;;;;;;20.08;11.55;;;1.30;99.90;;;;;;5034598;28;20021;-71
2021/12/02 07:16:46;;;;;;;23.40;12.77;;;1.30;99.90;;;;;;5033852;28;20083;-71
2021/12/02 07:19:12;;;;;;;25.17;12.82;;;1.30;99.90;;;;;;5032764;28;20025;-71
2021/12/02 07:21:40;;;;;;;21.90;12.02;;;1.30;99.90;;;;;;5034642;28;20030;-71
2021/12/02 07:24:08;;;;;;;18.15;9.65;;;1.30;99.90;;;;;;5034812;28;20040;-71
2021/12/02 07:26:35;;;;;;;16.67;8.73;;;1.30;99.90;;;;;;5049959;28;20428;-71
2021/12/02 07:29:02;;;;;;;16.52;9.65;;;1.30;99.90;;;;;;5034153;28;20036;-71
2021/12/02 07:31:30;;;;;;;17.83;8.98;;;1.30;99.90;;;;;;5034189;28;20036;-71
2021/12/02 07:33:58;;;;;;;15.57;9.48;;;1.30;99.90;;;;;;5034521;28;20440;-71
2021/12/02 07:36:25;;;;;;;16.70;9.70;;;1.30;99.90;;;;;;5034076;28;20029;-71
2021/12/02 07:38:51;;;;;;;24.33;12.57;;;1.40;99.90;;;;;;5034539;28;20025;-71
2021/12/02 07:41:16;;;;;;;24.73;14.60;;;1.40;99.90;;;;;;5033558;28;20468;-71
2021/12/02 07:43:42;;;;;;;24.83;15.70;;;1.40;99.90;;;;;;5033865;28;20025;-71
2021/12/02 07:46:09;;;;;;;44.20;21.08;;;1.40;99.90;;;;;;5034512;28;20075;-71
2021/12/02 07:48:36;;;;;;;31.38;17.58;;;1.50;99.90;;;;;;5034675;28;20023;-71
2021/12/02 07:51:08;;;;;;;27.70;14.57;;;1.50;99.90;;;;;;5034131;28;20454;-71
2021/12/02 07:53:34;;;;;;;24.42;12.88;;;1.50;99.90;;;;;;5034406;28;20021;-71
2021/12/02 07:56:04;;;;;;;66.82;41.08;;;1.40;99.90;;;;;;5034502;28;20363;-70
2021/12/02 07:58:31;;;;;;;62.80;36.33;;;1.50;99.90;;;;;;5034949;28;20026;-71
2021/12/02 08:01:00;;;;;;;53.83;32.42;;;1.50;99.90;;;;;;5034040;28;20029;-70
2021/12/02 08:03:26;;;;;;;46.42;28.23;;;1.50;99.90;;;;;;5033490;28;20084;-71
2021/12/02 08:05:53;;;;;;;40.95;25.10;;;1.50;99.90;;;;;;5033787;28;20036;-71
2021/12/02 08:08:19;;;;;;;39.65;20.23;;;1.60;99.90;;;;;;5034079;28;20030;-71
2021/12/02 08:10:45;;;;;;;34.97;18.48;;;1.60;99.90;;;;;;5034726;28;20036;-71
2021/12/02 08:13:13;;;;;;;30.85;16.85;;;1.60;99.90;;;;;;5035456;28;20539;-71
2021/12/02 08:15:40;;;;;;;31.65;17.58;;;1.70;99.90;;;;;;5035115;28;20021;-71
2021/12/02 08:18:06;;;;;;;43.88;21.50;;;1.70;99.90;;;;;;5033566;28;20154;-71
2021/12/02 08:20:32;;;;;;;33.33;18.63;;;1.70;99.90;;;;;;5032242;28;20030;-71
2021/12/02 08:22:59;;;;;;;32.58;17.92;;;1.70;99.90;;;;;;5033589;28;20079;-71
2021/12/02 08:25:26;;;;;;;27.75;15.55;;;1.80;99.90;;;;;;5031932;28;20014;-70
2021/12/02 08:27:53;;;;;;;26.80;15.00;;;1.70;99.90;;;;;;5027765;28;20389;-70
2021/12/02 08:30:22;;;;;;;25.02;14.13;;;1.80;99.90;;;;;;5020731;28;20017;-70
2021/12/02 08:32:48;;;;;;;40.47;19.20;;;1.80;99.90;;;;;;5028096;28;20025;-70
2021/12/02 08:35:15;;;;;;;31.92;17.52;;;1.80;99.90;;;;;;5032302;28;20389;-71
2021/12/02 08:37:45;;;;;;;31.35;16.02;;;1.90;99.90;;;;;;5033178;28;20026;-71
2021/12/02 08:40:15;;;;;;;39.20;17.23;;;2.00;99.90;;;;;;5033020;28;20018;-70
2021/12/02 08:42:41;;;;;;;41.00;17.00;;;1.90;99.90;;;;;;5036960;28;20080;-70
2021/12/02 08:45:08;;;;;;;39.65;17.70;;;2.00;99.90;;;;;;5035552;28;20047;-71
2021/12/02 08:47:36;;;;;;;28.85;16.33;;;1.90;99.90;;;;;;5036896;28;20079;-71
2021/12/02 08:50:03;;;;;;;38.25;19.33;;;1.90;99.90;;;;;;5035765;28;20455;-70
2021/12/02 08:52:30;;;;;;;40.55;18.65;;;1.90;99.90;;;;;;5037451;28;20029;-70
2021/12/02 08:54:56;;;;;;;33.58;17.70;;;1.90;99.90;;;;;;5037157;28;20033;-71
2021/12/02 08:57:23;;;;;;;36.13;17.67;;;1.90;99.90;;;;;;5036905;28;20378;-71
2021/12/02 08:59:50;;;;;;;42.45;17.55;;;1.90;99.90;;;;;;5035389;28;20064;-71
2021/12/02 09:02:16;;;;;;;37.05;17.08;;;2.00;99.90;;;;;;5036777;28;20366;-71
2021/12/02 09:04:42;;;;;;;28.42;14.85;;;2.00;99.90;;;;;;5036710;28;20376;-71
2021/12/02 09:07:09;;;;;;;42.65;16.67;;;2.00;99.90;;;;;;5036690;28;20021;-70
2021/12/02 09:09:35;;;;;;;31.98;14.95;;;2.10;99.90;;;;;;5036683;28;20021;-71
2021/12/02 09:12:02;;;;;;;28.30;14.77;;;2.10;99.90;;;;;;5036675;28;20106;-71
2021/12/02 09:14:28;;;;;;;28.35;13.30;;;2.20;99.90;;;;;;5036248;28;20025;-71
2021/12/02 09:16:54;;;;;;;31.50;15.38;;;2.20;99.90;;;;;;5035913;28;20382;-71
2021/12/02 09:19:20;;;;;;;24.30;13.30;;;2.20;99.90;;;;;;5036436;28;20108;-71
2021/12/02 09:21:47;;;;;;;26.45;13.98;;;2.20;99.90;;;;;;5036077;28;20029;-71
2021/12/02 09:24:18;;;;;;;28.90;15.00;;;2.20;99.90;;;;;;5036060;28;20025;-71
2021/12/02 09:26:46;;;;;;;29.13;14.65;;;2.20;99.90;;;;;;5036317;28;20021;-71
2021/12/02 09:29:13;;;;;;;25.05;12.60;;;2.20;99.90;;;;;;5034744;28;20041;-71
2021/12/02 09:31:40;;;;;;;23.55;12.90;;;2.30;99.90;;;;;;5036280;28;20032;-71
2021/12/02 09:34:05;;;;;;;24.80;12.63;;;2.30;99.90;;;;;;5036442;28;20022;-71
2021/12/02 09:36:32;;;;;;;25.85;13.68;;;2.30;99.90;;;;;;5037190;28;20038;-71
2021/12/02 09:38:58;;;;;;;20.95;12.57;;;2.30;99.90;;;;;;5037433;28;20025;-71
2021/12/02 09:41:24;;;;;;;22.58;13.13;;;2.40;99.90;;;;;;5036586;28;20450;-71
2021/12/02 09:43:50;;;;;;;27.15;13.77;;;2.40;99.90;;;;;;5036217;28;20029;-71
2021/12/02 09:46:16;;;;;;;25.10;13.75;;;2.50;99.90;;;;;;5036361;28;20026;-70
2021/12/02 09:48:42;;;;;;;29.55;14.20;;;2.50;99.90;;;;;;5035864;28;20493;-71
2021/12/02 09:51:10;;;;;;;38.05;17.42;;;2.60;99.90;;;;;;5036359;28;20017;-70
2021/12/02 09:53:50;;;;;;;34.88;18.77;;;2.70;99.90;;;;;;5033400;28;20030;-70
2021/12/02 09:56:28;;;;;;;40.55;19.55;;;2.70;99.90;;;;;;5016303;28;20022;-70
2021/12/02 09:58:57;;;;;;;67.78;30.77;;;2.80;99.90;;;;;;5013828;28;20131;-70
2021/12/02 10:01:27;;;;;;;72.60;33.58;;;2.90;99.90;;;;;;5013446;28;20021;-70
2021/12/02 10:04:04;;;;;;;58.22;26.55;;;2.90;99.90;;;;;;5013601;28;20010;-70
2021/12/02 10:06:32;;;;;;;63.20;28.35;;;2.90;99.90;;;;;;5013657;28;20374;-71
2021/12/02 10:09:18;;;;;;;45.15;24.33;;;3.00;99.90;;;;;;5013419;28;20395;-70
2021/12/02 10:11:55;;;;;;;32.00;17.98;;;3.00;99.90;;;;;;5014031;28;20037;-70
2021/12/02 10:14:36;;;;;;;30.10;16.58;;;3.00;99.90;;;;;;5015415;28;20021;-71
2021/12/02 10:17:10;;;;;;;29.10;15.20;;;3.00;99.90;;;;;;5015154;28;20038;-71
2021/12/02 10:19:37;;;;;;;24.45;13.57;;;3.00;99.90;;;;;;5015651;28;20034;-71
2021/12/02 10:22:12;;;;;;;25.10;14.38;;;3.10;99.90;;;;;;5015094;28;20026;-71
2021/12/02 10:24:43;;;;;;;25.45;14.05;;;3.10;99.90;;;;;;5015307;28;20018;-71
2021/12/02 10:27:12;;;;;;;23.17;12.73;;;3.20;99.90;;;;;;5015178;28;20081;-71
2021/12/02 10:29:39;;;;;;;24.90;12.70;;;3.30;99.90;;;;;;5015217;28;20389;-71
2021/12/02 10:32:11;;;;;;;21.60;13.60;;;3.20;99.90;;;;;;5015209;28;20034;-70
2021/12/02 10:34:46;;;;;;;20.48;12.20;;;3.20;99.90;;;;;;5015159;28;20041;-71
2021/12/02 10:37:13;;;;;;;22.85;13.00;;;3.20;99.90;;;;;;5015144;28;20022;-72
2021/12/02 10:39:38;;;;;;;25.38;14.38;;;3.30;99.90;;;;;;5014880;28;20030;-71
2021/12/02 10:42:09;;;;;;;23.80;13.88;;;3.40;99.90;;;;;;5013451;28;20022;-71
2021/12/02 10:44:39;;;;;;;21.10;12.48;;;3.40;99.90;;;;;;5015095;28;20363;-71
2021/12/02 10:47:13;;;;;;;20.30;12.05;;;3.40;99.90;;;;;;5013333;28;20056;-71
2021/12/02 10:49:53;;;;;;;17.67;10.75;;;3.40;99.90;;;;;;5014973;28;20304;-71
2021/12/02 10:52:22;;;;;;;19.75;11.23;;;3.50;99.90;;;;;;5013421;28;20033;-72
2021/12/02 10:54:51;;;;;;;18.27;10.13;;;3.50;99.90;;;;;;5013505;28;20431;-72
2021/12/02 10:57:23;;;;;;;17.02;9.68;;;3.60;99.90;;;;;;5015348;28;20075;-70
2021/12/02 10:59:50;;;;;;;20.15;11.77;;;3.60;99.90;;;;;;5014766;28;20378;-70
2021/12/02 11:02:23;;;;;;;26.85;13.38;;;3.60;99.90;;;;;;5014684;28;20159;-70
2021/12/02 11:05:00;;;;;;;19.63;11.05;;;3.60;99.90;;;;;;5012830;28;20018;-70
2021/12/02 11:07:40;;;;;;;20.98;11.70;;;3.60;99.90;;;;;;5014421;28;20500;-69
2021/12/02 11:10:15;;;;;;;54.90;24.85;;;3.60;99.90;;;;;;5014633;28;20025;-70
2021/12/02 11:12:45;;;;;;;25.88;14.57;;;3.60;99.90;;;;;;5014522;28;20109;-69
2021/12/02 11:15:18;;;;;;;18.85;10.82;;;3.60;99.90;;;;;;5014216;28;20030;-70
2021/12/02 11:17:44;;;;;;;21.98;12.10;;;3.50;99.90;;;;;;5014068;28;20052;-70
2021/12/02 11:20:43;;;;;;;22.02;11.57;;;3.60;99.90;;;;;;5012871;28;20026;-70
2021/12/02 11:23:29;;;;;;;21.80;12.25;;;3.60;99.90;;;;;;5002549;28;20041;-70
2021/12/02 11:26:02;;;;;;;18.65;10.48;;;3.60;99.90;;;;;;5014354;28;20026;-69
2021/12/02 11:28:30;;;;;;;21.80;12.70;;;3.60;99.90;;;;;;5014682;28;20026;-69
2021/12/02 11:30:58;;;;;;;23.20;13.35;;;3.60;99.90;;;;;;5012735;28;20113;-69
2021/12/02 11:33:39;;;;;;;32.47;17.05;;;3.60;99.90;;;;;;5013983;28;20052;-69
2021/12/02 11:36:07;;;;;;;33.95;18.17;;;3.60;99.90;;;;;;5014571;28;20022;-69
2021/12/02 11:38:34;;;;;;;40.97;19.38;;;3.60;99.90;;;;;;5014109;28;20470;-69
2021/12/02 11:41:03;;;;;;;33.28;17.20;;;3.60;99.90;;;;;;5014063;28;20022;-69
2021/12/02 11:43:34;;;;;;;32.05;18.02;;;3.60;99.90;;;;;;5013649;28;20033;-69
2021/12/02 11:46:02;;;;;;;29.88;15.90;;;3.60;99.90;;;;;;5013459;28;20026;-69
2021/12/02 11:48:30;;;;;;;28.35;16.50;;;3.70;99.90;;;;;;5012330;28;20030;-70
2021/12/02 11:50:59;;;;;;;26.88;15.65;;;3.60;99.90;;;;;;5013979;28;20030;-69
2021/12/02 11:53:26;;;;;;;25.85;14.73;;;3.60;99.90;;;;;;5013811;28;20482;-69
2021/12/02 11:56:00;;;;;;;29.02;18.58;;;3.70;99.90;;;;;;5013823;28;20061;-69
2021/12/02 11:58:27;;;;;;;27.23;15.88;;;3.70;99.90;;;;;;5013881;28;20032;-70
2021/12/02 12:00:54;;;;;;;25.65;16.52;;;3.80;99.90;;;;;;5013865;28;20077;-70
2021/12/02 12:03:37;;;;;;;28.48;17.60;;;3.80;99.90;;;;;;5013521;28;20033;-70
2021/12/02 12:06:10;;;;;;;28.67;17.42;;;3.70;99.90;;;;;;5014169;28;20370;-70
2021/12/02 12:08:45;;;;;;;25.10;15.80;;;3.70;99.90;;;;;;5013570;28;20474;-69
2021/12/02 12:11:27;;;;;;;28.58;16.67;;;3.70;99.90;;;;;;5013441;28;20022;-69
2021/12/02 12:14:03;;;;;;;30.77;15.95;;;3.70;99.90;;;;;;5013748;28;20101;-70
2021/12/02 12:16:35;;;;;;;27.85;14.73;;;3.70;99.90;;;;;;5013111;28;20036;-70
2021/12/02 12:19:27;;;;;;;34.05;17.77;;;3.70;99.90;;;;;;5017473;28;20025;-69
2021/12/02 12:21:57;;;;;;;32.95;16.80;;;3.70;99.90;;;;;;5017887;28;20080;-70
2021/12/02 12:24:49;;;;;;;36.78;19.63;;;3.70;99.90;;;;;;5017657;28;20030;-69
2021/12/02 12:27:26;;;;;;;28.00;17.30;;;3.70;99.90;;;;;;5017364;28;20026;-70
2021/12/02 12:30:04;;;;;;;28.75;16.13;;;3.70;99.90;;;;;;5017636;28;20378;-70
2021/12/02 12:33:09;;;;;;;25.65;14.98;;;3.70;99.90;;;;;;5015920;28;20030;-69
2021/12/02 12:35:50;;;;;;;33.83;16.58;;;3.80;99.90;;;;;;5015892;28;20026;-69
2021/12/02 12:38:25;;;;;;;187.80;69.43;;;3.90;99.90;;;;;;5017032;28;20045;-69
2021/12/02 12:41:22;;;;;;;235.43;95.22;;;4.00;99.90;;;;;;5017330;28;20116;-69
2021/12/02 12:43:51;;;;;;;194.77;84.95;;;4.00;99.90;;;;;;5004805;28;20034;-69
2021/12/02 12:46:26;;;;;;;36.50;19.00;;;4.00;99.90;;;;;;5016849;28;20033;-69
2021/12/02 12:48:54;;;;;;;40.30;20.98;;;4.10;99.90;;;;;;5015825;28;20041;-69
2021/12/02 12:51:21;;;;;;;34.17;17.75;;;4.10;99.90;;;;;;5016867;28;20026;-69
2021/12/02 12:53:50;;;;;;;31.90;16.85;;;4.10;99.90;;;;;;5017133;28;20026;-69
2021/12/02 12:56:24;;;;;;;35.45;17.30;;;4.10;99.90;;;;;;5016757;28;21645;-69
2021/12/02 12:58:52;;;;;;;93.97;45.10;;;4.10;99.90;;;;;;5016755;28;20018;-69
2021/12/02 13:01:19;;;;;;;158.20;76.20;;;4.00;99.90;;;;;;5016934;28;20097;-69
2021/12/02 13:04:13;;;;;;;144.38;71.15;;;4.10;99.90;;;;;;5016673;28;20030;-69
2021/12/02 13:07:01;;;;;;;67.65;32.05;;;4.10;99.90;;;;;;5016541;28;20018;-69
2021/12/02 13:09:46;;;;;;;38.25;21.38;;;4.00;99.90;;;;;;5016549;28;20025;-70
2021/12/02 13:12:17;;;;;;;26.13;15.38;;;4.00;99.90;;;;;;5015370;28;20064;-70
2021/12/02 13:14:44;;;;;;;23.77;13.55;;;3.90;99.90;;;;;;5016571;28;20080;-69